createdAt,value
2019-04-29T00:00:50.432Z,19.47
2019-04-29T00:03:22.884Z,28.63
2019-04-29T00:05:53.703Z,19.50
2019-04-29T00:08:24.269Z,23.13
2019-04-29T00:10:54.597Z,17.23
2019-04-29T00:13:26.494Z,22.33
2019-04-29T00:16:31.119Z,17.63
2019-04-29T00:19:38.659Z,19.43
2019-04-29T00:22:09.000Z,19.70
2019-04-29T00:24:39.357Z,21.50
2019-04-29T00:27:09.703Z,22.07
2019-04-29T00:29:40.320Z,24.10
2019-04-29T00:32:10.931Z,17.67
2019-04-29T00:34:41.312Z,16.07
2019-04-29T00:37:26.161Z,19.33
2019-04-29T00:40:19.900Z,22.07
2019-04-29T00:43:00.273Z,30.60
2019-04-29T00:45:32.617Z,21.47
2019-04-29T00:48:03.009Z,17.43
2019-04-29T00:50:33.341Z,15.70
2019-04-29T00:53:03.740Z,18.93
2019-04-29T00:55:34.560Z,35.87
2019-04-29T00:58:04.954Z,18.97
2019-04-29T01:00:40.375Z,19.37
2019-04-29T01:03:10.970Z,18.30
2019-04-29T01:05:41.502Z,24.17
2019-04-29T01:08:11.859Z,14.90
2019-04-29T01:10:42.321Z,17.97
2019-04-29T01:13:13.245Z,23.33
2019-04-29T01:15:47.065Z,21.67
2019-04-29T01:18:17.821Z,20.40
2019-04-29T01:20:48.305Z,22.80
2019-04-29T01:23:18.693Z,16.40
2019-04-29T01:25:52.491Z,18.13
2019-04-29T01:28:28.700Z,19.10
2019-04-29T01:31:07.567Z,21.23
2019-04-29T01:33:38.068Z,24.37
2019-04-29T01:36:32.346Z,22.13
2019-04-29T01:39:04.745Z,17.77
2019-04-29T01:41:46.369Z,24.67
2019-04-29T01:44:17.383Z,14.30
2019-04-29T01:46:48.878Z,24.27
2019-04-29T01:49:19.406Z,17.87
2019-04-29T01:51:50.951Z,22.53
2019-04-29T01:54:21.785Z,23.07
2019-04-29T01:56:52.252Z,22.80
2019-04-29T01:59:22.648Z,19.83
2019-04-29T02:01:53.283Z,19.23
2019-04-29T02:04:23.713Z,21.40
2019-04-29T02:06:54.605Z,19.13
2019-04-29T02:09:32.417Z,25.63
2019-04-29T02:12:03.190Z,21.63
2019-04-29T02:14:33.621Z,20.20
2019-04-29T02:17:05.431Z,24.07
2019-04-29T02:19:36.414Z,34.87
2019-04-29T02:22:22.604Z,19.90
2019-04-29T02:24:57.303Z,24.93
2019-04-29T02:27:28.939Z,20.03
2019-04-29T02:29:59.387Z,21.13
2019-04-29T02:32:30.045Z,21.87
2019-04-29T02:35:00.587Z,20.30
2019-04-29T02:37:35.079Z,26.20
2019-04-29T02:40:29.273Z,16.87
2019-04-29T02:43:05.204Z,20.70
2019-04-29T02:45:37.653Z,16.93
2019-04-29T02:48:09.652Z,23.33
2019-04-29T02:50:40.497Z,24.27
2019-04-29T02:53:10.971Z,19.70
2019-04-29T02:55:46.284Z,17.43
2019-04-29T02:58:44.576Z,29.57
2019-04-29T03:01:39.703Z,19.63
2019-04-29T03:04:14.552Z,22.50
2019-04-29T03:06:45.141Z,35.53
2019-04-29T03:09:16.077Z,35.67
2019-04-29T03:11:46.474Z,22.47
2019-04-29T03:14:17.126Z,21.37
2019-04-29T03:16:47.637Z,30.10
2019-04-29T03:19:23.307Z,23.30
2019-04-29T03:21:56.339Z,24.20
2019-04-29T03:24:26.818Z,20.23
2019-04-29T03:26:57.342Z,25.17
2019-04-29T03:29:27.789Z,30.60
2019-04-29T03:31:59.355Z,20.33
2019-04-29T03:34:29.966Z,21.37
2019-04-29T03:37:00.376Z,22.27
2019-04-29T03:39:31.207Z,27.37
2019-04-29T03:42:07.407Z,20.30
2019-04-29T03:44:37.591Z,30.37
2019-04-29T03:47:08.184Z,19.87
2019-04-29T03:49:40.163Z,27.37
2019-04-29T03:52:10.584Z,25.13
2019-04-29T03:54:41.152Z,22.40
2019-04-29T03:57:13.204Z,25.03
2019-04-29T03:59:44.105Z,23.77
2019-04-29T04:02:30.070Z,18.13
2019-04-29T04:05:18.510Z,23.43
2019-04-29T04:07:55.654Z,25.67
2019-04-29T04:10:26.220Z,24.23
2019-04-29T04:12:56.611Z,16.90
2019-04-29T04:15:27.048Z,22.50
2019-04-29T04:18:05.485Z,40.17
2019-04-29T04:20:36.145Z,19.47
2019-04-29T04:23:06.464Z,21.43
2019-04-29T04:25:37.078Z,23.53
2019-04-29T04:28:08.761Z,24.63
2019-04-29T04:30:41.149Z,27.43
2019-04-29T04:33:11.501Z,31.13
2019-04-29T04:35:41.905Z,22.77
2019-04-29T04:38:12.237Z,20.20
2019-04-29T04:40:50.950Z,31.70
2019-04-29T04:43:21.268Z,28.90
2019-04-29T04:45:51.679Z,22.93
2019-04-29T04:48:23.835Z,21.83
2019-04-29T04:50:54.228Z,21.10
2019-04-29T04:53:24.557Z,30.43
2019-04-29T04:55:57.079Z,27.80
2019-04-29T04:58:27.436Z,31.20
2019-04-29T05:00:58.790Z,25.50
2019-04-29T05:03:29.123Z,23.57
2019-04-29T05:05:59.521Z,33.07
2019-04-29T05:08:30.236Z,45.50
2019-04-29T05:11:01.547Z,43.73
2019-04-29T05:13:31.972Z,48.93
2019-04-29T05:16:02.466Z,54.77
2019-04-29T05:18:32.858Z,37.13
2019-04-29T05:21:04.598Z,49.90
2019-04-29T05:23:34.947Z,41.03
2019-04-29T05:26:05.275Z,43.23
2019-04-29T05:28:35.633Z,47.07
2019-04-29T05:31:06.086Z,41.87
2019-04-29T05:33:36.432Z,31.67
2019-04-29T05:36:18.591Z,37.47
2019-04-29T05:39:05.115Z,40.07
2019-04-29T05:41:36.383Z,34.13
2019-04-29T05:44:21.837Z,34.70
2019-04-29T05:46:55.971Z,31.63
2019-04-29T05:49:31.599Z,29.53
2019-04-29T05:52:20.037Z,22.30
2019-04-29T05:54:50.468Z,26.83
2019-04-29T05:57:25.440Z,24.33
2019-04-29T05:59:52.823Z,20.40
2019-04-29T06:02:24.094Z,20.10
2019-04-29T06:04:55.290Z,20.53
2019-04-29T06:07:26.953Z,20.93
2019-04-29T06:09:57.590Z,26.53
2019-04-29T06:12:27.979Z,22.97
2019-04-29T06:14:58.367Z,25.07
2019-04-29T06:17:29.157Z,25.27
2019-04-29T06:20:00.523Z,23.20
2019-04-29T06:22:30.902Z,28.03
2019-04-29T06:25:01.257Z,24.87
2019-04-29T06:27:33.342Z,24.37
2019-04-29T06:30:04.960Z,22.03
2019-04-29T06:32:35.652Z,28.63
2019-04-29T06:35:10.545Z,17.87
2019-04-29T06:37:39.878Z,20.43
2019-04-29T06:40:10.646Z,23.80
2019-04-29T06:42:41.462Z,17.70
2019-04-29T06:45:12.464Z,21.40
2019-04-29T06:47:42.835Z,26.63
2019-04-29T06:50:13.376Z,32.47
2019-04-29T06:52:52.183Z,24.37
2019-04-29T06:55:32.150Z,27.90
2019-04-29T06:58:07.770Z,19.03
2019-04-29T07:00:38.929Z,24.37
2019-04-29T07:03:15.875Z,21.90
2019-04-29T07:05:56.437Z,26.53
2019-04-29T07:08:31.289Z,24.73
2019-04-29T07:11:36.498Z,21.10
2019-04-29T07:14:24.151Z,28.50
2019-04-29T07:17:05.570Z,46.97
2019-04-29T07:19:35.896Z,33.03
2019-04-29T07:22:10.016Z,37.60
2019-04-29T07:24:57.230Z,27.23
2019-04-29T07:27:57.354Z,34.80
2019-04-29T07:30:29.627Z,25.73
2019-04-29T07:33:00.045Z,29.03
2019-04-29T07:35:30.441Z,21.93
2019-04-29T07:38:04.457Z,24.90
2019-04-29T07:40:33.298Z,23.30
2019-04-29T07:43:07.762Z,33.40
2019-04-29T07:45:53.686Z,22.63
2019-04-29T07:48:24.110Z,22.53
2019-04-29T07:51:39.526Z,21.03
2019-04-29T07:54:11.068Z,21.07
2019-04-29T07:56:42.449Z,20.20
2019-04-29T07:59:12.457Z,24.57
2019-04-29T08:01:43.158Z,36.37
2019-04-29T08:04:13.553Z,33.27
2019-04-29T08:06:44.945Z,31.00
2019-04-29T08:09:15.481Z,44.53
2019-04-29T08:11:53.405Z,26.83
2019-04-29T08:14:26.477Z,21.73
2019-04-29T08:16:56.804Z,31.63
2019-04-29T08:19:29.504Z,29.40
2019-04-29T08:21:59.557Z,25.80
2019-04-29T08:24:29.904Z,27.97
2019-04-29T08:27:01.323Z,27.53
2019-04-29T08:29:35.813Z,32.00
2019-04-29T08:32:06.458Z,30.87
2019-04-29T08:34:36.906Z,25.10
2019-04-29T08:37:07.260Z,34.57
2019-04-29T08:39:37.830Z,31.60
2019-04-29T08:48:17.785Z,36.87
2019-04-29T08:50:48.287Z,29.00
2019-04-29T08:53:19.590Z,30.83
2019-04-29T08:55:50.060Z,33.90
2019-04-29T08:58:21.402Z,26.27
2019-04-29T09:00:55.736Z,20.73
2019-04-29T09:03:24.414Z,17.93
2019-04-29T09:06:05.273Z,22.60
2019-04-29T09:11:48.033Z,15.27
2019-04-29T09:14:18.621Z,19.97
2019-04-29T09:16:49.027Z,20.57
2019-04-29T09:19:19.487Z,26.97
2019-04-29T09:21:53.042Z,26.00
2019-04-29T09:24:23.406Z,24.90
2019-04-29T09:27:04.997Z,22.97
2019-04-29T09:29:38.044Z,22.60
2019-04-29T09:32:08.472Z,16.67
2019-04-29T09:34:39.916Z,20.87
2019-04-29T09:37:10.228Z,18.00
2019-04-29T09:39:44.049Z,16.70
2019-04-29T09:42:32.137Z,17.17
2019-04-29T09:48:11.041Z,16.70
2019-04-29T09:50:41.927Z,24.57
2019-04-29T09:56:11.762Z,25.10
2019-04-29T09:58:43.065Z,25.23
2019-04-29T10:01:41.961Z,25.10
2019-04-29T10:04:26.533Z,18.63
2019-04-29T10:06:58.566Z,25.80
2019-04-29T10:09:29.326Z,25.27
2019-04-29T10:11:59.909Z,20.47
2019-04-29T10:14:31.124Z,24.00
2019-04-29T10:17:26.958Z,22.27
2019-04-29T10:20:16.347Z,24.10
2019-04-29T10:22:50.194Z,27.23
2019-04-29T10:25:18.961Z,22.73
2019-04-29T10:27:49.377Z,22.93
2019-04-29T10:30:21.249Z,26.33
2019-04-29T10:32:52.718Z,25.23
2019-04-29T10:35:26.227Z,22.53
2019-04-29T10:38:02.803Z,22.20
2019-04-29T10:40:48.118Z,26.03
2019-04-29T10:46:45.159Z,22.47
2019-04-29T10:49:27.115Z,23.50
2019-04-29T10:52:02.495Z,25.13
2019-04-29T10:54:31.225Z,22.27
2019-04-29T10:57:01.959Z,23.57
2019-04-29T10:59:35.912Z,23.27
2019-04-29T11:02:32.817Z,22.73
2019-04-29T11:05:23.126Z,24.57
2019-04-29T11:07:58.077Z,21.90
2019-04-29T11:10:30.337Z,25.90
2019-04-29T11:13:01.045Z,24.10
2019-04-29T11:15:37.961Z,24.77
2019-04-29T11:18:08.476Z,23.20
2019-04-29T11:20:38.753Z,25.60
2019-04-29T11:23:18.391Z,26.30
2019-04-29T11:26:10.819Z,23.90
2019-04-29T11:28:41.525Z,21.17
2019-04-29T11:31:14.454Z,22.93
2019-04-29T11:34:00.575Z,24.23
2019-04-29T11:36:30.925Z,21.53
2019-04-29T11:39:01.249Z,26.70
2019-04-29T11:41:33.640Z,22.53
2019-04-29T11:44:05.340Z,22.43
2019-04-29T11:46:35.654Z,27.37
2019-04-29T11:49:06.923Z,26.20
2019-04-29T11:51:55.931Z,26.23
2019-04-29T11:54:12.837Z,22.33
2019-04-29T11:56:43.386Z,21.80
2019-04-29T11:59:39.905Z,22.97
2019-04-29T12:02:45.545Z,23.30
2019-04-29T12:05:20.385Z,24.67
2019-04-29T12:07:51.828Z,18.90
2019-04-29T12:14:02.728Z,25.37
2019-04-29T12:16:57.025Z,21.47
2019-04-29T12:19:30.323Z,17.40
2019-04-29T12:22:04.885Z,25.23
2019-04-29T12:24:33.598Z,21.80
2019-04-29T12:27:19.870Z,26.13
2019-04-29T12:29:48.931Z,23.60
2019-04-29T12:32:51.031Z,23.73
2019-04-29T12:35:30.230Z,20.17
2019-04-29T12:38:39.814Z,23.17
2019-04-29T12:41:21.045Z,17.90
2019-04-29T12:47:30.917Z,18.63
2019-04-29T12:50:01.653Z,21.53
2019-04-29T12:52:32.622Z,21.83
2019-04-29T12:55:19.291Z,19.27
2019-04-29T12:57:35.185Z,24.63
2019-04-29T13:00:12.688Z,26.77
2019-04-29T13:03:16.707Z,18.67
2019-04-29T13:06:23.579Z,20.03
2019-04-29T13:08:52.956Z,18.00
2019-04-29T13:11:35.982Z,27.20
2019-04-29T13:14:01.409Z,23.27
2019-04-29T13:17:14.385Z,19.70
2019-04-29T13:20:00.756Z,20.00
2019-04-29T13:22:19.757Z,16.13
2019-04-29T13:24:50.513Z,19.03
2019-04-29T13:27:25.220Z,19.67
2019-04-29T13:29:52.845Z,20.27
2019-04-29T13:32:25.328Z,19.67
2019-04-29T13:35:00.247Z,18.00
2019-04-29T13:37:28.842Z,20.03
2019-04-29T13:39:59.122Z,19.70
2019-04-29T13:42:29.883Z,22.57
2019-04-29T13:45:07.853Z,18.23
2019-04-29T13:48:01.789Z,19.50
2019-04-29T13:50:40.165Z,16.63
2019-04-29T13:56:11.602Z,24.03
2019-04-29T13:58:35.887Z,23.30
2019-04-29T14:01:33.462Z,18.60
2019-04-29T14:06:57.043Z,17.20
2019-04-29T14:09:23.510Z,23.53
2019-04-29T14:12:02.095Z,15.93
2019-04-29T14:14:30.400Z,17.60
2019-04-29T14:17:24.136Z,18.30
2019-04-29T14:20:00.388Z,15.83
2019-04-29T14:22:32.849Z,18.57
2019-04-29T14:27:55.095Z,15.43
2019-04-29T14:30:37.818Z,17.30
2019-04-29T14:33:01.918Z,16.83
2019-04-29T14:35:39.224Z,28.43
2019-04-29T14:38:09.563Z,19.00
2019-04-29T14:40:42.830Z,16.60
2019-04-29T14:43:28.918Z,17.20
2019-04-29T14:48:52.938Z,20.50
2019-04-29T14:51:27.938Z,18.60
2019-04-29T14:53:57.171Z,16.67
2019-04-29T14:56:28.792Z,13.27
2019-04-29T14:59:06.624Z,16.50
2019-04-29T15:01:49.477Z,13.10
2019-04-29T15:04:28.980Z,13.73
2019-04-29T15:06:59.517Z,12.17
2019-04-29T15:09:30.098Z,11.50
2019-04-29T15:12:11.323Z,13.70
2019-04-29T15:15:02.896Z,12.30
2019-04-29T15:18:15.505Z,18.83
2019-04-29T15:20:44.668Z,19.37
2019-04-29T15:23:28.942Z,13.20
2019-04-29T15:25:58.505Z,12.40
2019-04-29T15:28:28.812Z,15.40
2019-04-29T15:30:59.129Z,10.27
2019-04-29T15:33:30.551Z,11.07
2019-04-29T15:36:03.449Z,12.33
2019-04-29T15:38:33.825Z,13.57
2019-04-29T15:41:05.770Z,11.30
2019-04-29T15:43:47.381Z,12.87
2019-04-29T15:46:11.313Z,12.73
2019-04-29T15:48:40.925Z,13.03
2019-04-29T15:51:13.885Z,11.27
2019-04-29T15:53:43.651Z,12.80
2019-04-29T15:56:28.185Z,11.83
2019-04-29T15:58:46.132Z,13.63
2019-04-29T16:01:18.105Z,13.93
2019-04-29T16:03:54.762Z,17.60
2019-04-29T16:06:43.553Z,13.87
2019-04-29T16:09:30.400Z,13.77
2019-04-29T16:12:27.540Z,15.83
2019-04-29T16:14:58.971Z,12.77
2019-04-29T16:17:31.942Z,12.73
2019-04-29T16:20:01.473Z,19.87
2019-04-29T16:22:36.101Z,17.10
2019-04-29T16:25:04.934Z,18.10
2019-04-29T16:27:41.001Z,14.30
2019-04-29T16:30:20.117Z,17.03
2019-04-29T16:32:50.429Z,13.70
2019-04-29T16:35:23.680Z,18.50
2019-04-29T16:37:53.289Z,14.93
2019-04-29T16:40:25.560Z,16.47
2019-04-29T16:43:04.291Z,26.03
2019-04-29T16:45:51.427Z,16.43
2019-04-29T16:48:22.303Z,16.23
2019-04-29T16:50:52.687Z,18.00
2019-04-29T16:53:23.073Z,16.63
2019-04-29T16:55:53.459Z,18.73
2019-04-29T16:58:23.931Z,11.80
2019-04-29T17:00:54.877Z,15.63
2019-04-29T17:03:25.309Z,14.70
2019-04-29T17:05:55.633Z,21.47
2019-04-29T17:08:34.900Z,13.87
2019-04-29T17:11:17.389Z,19.17
2019-04-29T17:13:46.877Z,14.63
2019-04-29T17:16:19.862Z,15.97
2019-04-29T17:18:50.853Z,18.40
2019-04-29T17:21:21.250Z,22.47
2019-04-29T17:23:52.703Z,14.03
2019-04-29T17:26:25.113Z,14.90
2019-04-29T17:29:11.973Z,13.00
2019-04-29T17:31:57.119Z,16.47
2019-04-29T17:34:56.117Z,20.03
2019-04-29T17:37:00.733Z,18.00
2019-04-29T17:39:31.603Z,15.20
2019-04-29T17:42:01.960Z,18.77
2019-04-29T17:44:44.200Z,20.53
2019-04-29T17:47:34.786Z,17.27
2019-04-29T17:50:46.197Z,19.60
2019-04-29T17:53:21.760Z,14.83
2019-04-29T17:56:01.453Z,15.80
2019-04-29T17:58:36.621Z,13.13
2019-04-29T18:01:43.385Z,16.50
2019-04-29T18:04:30.491Z,18.43
2019-04-29T18:07:21.945Z,19.23
2019-04-29T18:09:56.684Z,20.70
2019-04-29T18:12:26.991Z,18.97
2019-04-29T18:14:57.333Z,17.30
2019-04-29T18:17:31.491Z,15.40
2019-04-29T18:20:35.730Z,13.70
2019-04-29T18:23:19.287Z,15.57
2019-04-29T18:25:55.467Z,14.60
2019-04-29T18:28:26.032Z,16.43
2019-04-29T18:30:57.955Z,18.10
2019-04-29T18:33:30.265Z,26.23
2019-04-29T18:36:04.567Z,14.23
2019-04-29T18:38:35.077Z,16.43
2019-04-29T18:41:28.132Z,18.77
2019-04-29T18:44:02.875Z,14.57
2019-04-29T18:46:29.175Z,18.23
2019-04-29T18:49:03.348Z,18.53
2019-04-29T18:51:35.343Z,19.67
2019-04-29T18:54:06.226Z,15.70
2019-04-29T18:56:37.814Z,19.43
2019-04-29T18:59:10.149Z,18.33
2019-04-29T19:02:07.898Z,14.80
2019-04-29T19:04:53.406Z,15.80
2019-04-29T19:07:25.448Z,17.53
2019-04-29T19:09:56.435Z,20.37
2019-04-29T19:12:27.169Z,16.53
2019-04-29T19:15:04.506Z,28.70
2019-04-29T19:17:30.888Z,22.77
2019-04-29T19:20:02.008Z,21.23
2019-04-29T19:22:35.929Z,21.57
2019-04-29T19:25:11.731Z,18.13
2019-04-29T19:27:40.722Z,20.00
2019-04-29T19:30:14.285Z,24.93
2019-04-29T19:33:05.435Z,21.27
2019-04-29T19:35:38.569Z,18.73
2019-04-29T19:38:12.483Z,28.43
2019-04-29T19:40:42.525Z,17.00
2019-04-29T19:43:15.334Z,19.53
2019-04-29T19:45:48.515Z,21.70
2019-04-29T19:48:16.517Z,23.40
2019-04-29T19:50:50.056Z,28.43
2019-04-29T19:53:19.771Z,25.23
2019-04-29T19:56:02.225Z,19.90
2019-04-29T19:58:31.192Z,27.97
2019-04-29T20:01:10.842Z,20.63
2019-04-29T20:03:37.760Z,28.17
2019-04-29T20:06:21.548Z,23.37
2019-04-29T20:08:53.933Z,23.87
2019-04-29T20:11:19.032Z,16.03
2019-04-29T20:14:02.453Z,22.73
2019-04-29T20:16:54.647Z,21.23
2019-04-29T20:19:41.039Z,22.30
2019-04-29T20:22:11.786Z,19.50
2019-04-29T20:24:49.586Z,24.27
2019-04-29T20:27:15.180Z,18.63
2019-04-29T20:29:45.966Z,20.23
2019-04-29T20:32:17.024Z,23.43
2019-04-29T20:34:47.579Z,20.50
2019-04-29T20:37:19.718Z,16.73
2019-04-29T20:39:52.204Z,23.90
2019-04-29T20:42:25.933Z,29.13
2019-04-29T20:44:56.497Z,31.97
2019-04-29T20:47:37.586Z,22.67
2019-04-29T20:50:00.025Z,19.80
2019-04-29T20:52:40.593Z,21.53
2019-04-29T20:55:11.601Z,28.50
2019-04-29T20:57:42.140Z,20.73
2019-04-29T21:00:13.818Z,20.97
2019-04-29T21:02:45.463Z,21.03
2019-04-29T21:05:23.144Z,20.83
2019-04-29T21:07:49.217Z,21.67
2019-04-29T21:10:20.167Z,26.80
2019-04-29T21:13:19.882Z,21.10
2019-04-29T21:15:59.633Z,19.57
2019-04-29T21:18:30.260Z,23.90
2019-04-29T21:21:04.612Z,23.03
2019-04-29T21:23:35.384Z,25.53
2019-04-29T21:26:08.744Z,26.20
2019-04-29T21:28:41.790Z,24.07
2019-04-29T21:31:11.689Z,18.23
2019-04-29T21:33:42.953Z,15.87
2019-04-29T21:36:20.576Z,22.27
2019-04-29T21:39:12.873Z,20.33
2019-04-29T21:41:55.537Z,19.70
2019-04-29T21:44:27.897Z,19.07
2019-04-29T21:46:59.748Z,27.10
2019-04-29T21:49:30.031Z,22.80
2019-04-29T21:52:01.205Z,25.63
2019-04-29T21:54:31.705Z,20.20
2019-04-29T21:57:03.394Z,18.47
2019-04-29T21:59:35.735Z,18.10
2019-04-29T22:02:11.421Z,20.73
2019-04-29T22:04:41.158Z,24.90
2019-04-29T22:07:15.512Z,19.50
2019-04-29T22:09:50.002Z,20.50
2019-04-29T22:12:20.278Z,19.00
2019-04-29T22:14:53.666Z,21.13
2019-04-29T22:17:26.330Z,19.40
2019-04-29T22:19:57.397Z,22.20
2019-04-29T22:22:25.919Z,25.17
2019-04-29T22:24:57.659Z,22.30
2019-04-29T22:27:34.214Z,22.37
2019-04-29T22:30:02.066Z,25.60
2019-04-29T22:32:32.520Z,22.80
2019-04-29T22:35:02.861Z,31.93
2019-04-29T22:37:34.703Z,23.93
2019-04-29T22:40:06.465Z,29.37
2019-04-29T22:42:48.813Z,19.50
2019-04-29T22:45:19.330Z,22.90
2019-04-29T22:47:54.409Z,39.63
2019-04-29T22:50:21.595Z,20.00
2019-04-29T22:52:51.965Z,27.87
2019-04-29T22:55:22.283Z,25.30
2019-04-29T22:57:55.451Z,24.23
2019-04-29T23:00:32.624Z,27.33
2019-04-29T23:03:02.216Z,39.77
2019-04-29T23:05:32.145Z,22.57
2019-04-29T23:08:02.533Z,22.90
2019-04-29T23:10:32.860Z,30.00
2019-04-29T23:13:03.423Z,45.23
2019-04-29T23:15:35.698Z,27.10
2019-04-29T23:18:07.003Z,26.70
2019-04-29T23:20:52.487Z,28.87
2019-04-29T23:23:33.759Z,26.97
2019-04-29T23:26:04.174Z,24.83
2019-04-29T23:28:35.964Z,27.13
2019-04-29T23:31:07.329Z,26.03
2019-04-29T23:33:37.648Z,27.47
2019-04-29T23:36:09.724Z,26.27
2019-04-29T23:38:42.776Z,30.20
2019-04-29T23:41:15.312Z,34.57
2019-04-29T23:43:46.963Z,32.90
2019-04-29T23:46:17.319Z,46.40
2019-04-29T23:48:47.665Z,30.60
2019-04-29T23:51:17.967Z,36.10
2019-04-29T23:53:48.293Z,25.67
2019-04-29T23:56:20.533Z,33.13
2019-04-29T23:58:56.877Z,26.13
